Time;durP1;ratioP1;P1;durP2;ratioP2;P2;SDS_P1;SDS_P2;PMS_P1;PMS_P2;Temp;Humidity;BMP_temperature;BMP_pressure;BME280_temperature;BME280_humidity;BME280_pressure;Samples;Min_cycle;Max_cycle;Signal;HPM_P1;HPM_P2
2023/05/17 00:01:07;;;;;;;4.90;3.90;;;9.00;58.00;;;;;;6229941;28;20587;-82
2023/05/17 00:04:10;;;;;;;4.33;3.30;;;9.00;58.40;;;;;;6227409;28;20288;-82
2023/05/17 00:07:13;;;;;;;4.03;3.40;;;8.90;58.60;;;;;;6233959;28;20279;-80
2023/05/17 00:10:17;;;;;;;7.37;3.83;;;8.90;59.00;;;;;;6240872;28;20233;-80
2023/05/17 00:13:21;;;;;;;5.10;3.87;;;8.90;59.30;;;;;;6240089;28;20339;-80
2023/05/17 00:16:24;;;;;;;7.67;3.53;;;8.80;60.00;;;;;;6224840;28;20760;-81
2023/05/17 00:19:27;;;;;;;6.27;4.13;;;8.80;60.20;;;;;;6231779;28;20266;-81
2023/05/17 00:22:31;;;;;;;3.70;3.50;;;8.80;60.50;;;;;;6233575;28;20281;-80
2023/05/17 00:25:35;;;;;;;8.30;4.67;;;8.80;61.10;;;;;;6235377;28;20235;-82
2023/05/17 00:28:38;;;;;;;5.63;4.07;;;8.60;61.50;;;;;;6230917;28;20230;-81
2023/05/17 00:31:41;;;;;;;5.87;4.63;;;8.60;61.90;;;;;;6216285;28;20262;-83
2023/05/17 00:34:45;;;;;;;9.03;4.40;;;8.60;62.40;;;;;;6239866;28;20308;-80
2023/05/17 00:37:48;;;;;;;4.80;4.40;;;8.60;62.60;;;;;;6219323;28;20235;-80
2023/05/17 00:40:53;;;;;;;5.87;4.43;;;8.50;62.80;;;;;;6223064;28;20644;-83
2023/05/17 00:43:56;;;;;;;5.57;4.67;;;8.50;63.00;;;;;;6233187;28;20249;-81
2023/05/17 00:46:59;;;;;;;11.27;4.50;;;8.50;63.40;;;;;;6224565;28;20292;-81
2023/05/17 00:50:02;;;;;;;6.23;4.30;;;8.50;63.50;;;;;;6230125;28;20373;-82
2023/05/17 00:53:06;;;;;;;5.03;4.53;;;8.40;64.00;;;;;;6234209;28;20257;-80
2023/05/17 00:56:11;;;;;;;5.47;5.00;;;8.40;64.10;;;;;;6238034;28;20243;-81
2023/05/17 00:59:14;;;;;;;6.33;4.50;;;8.30;64.20;;;;;;6232093;28;20262;-80
2023/05/17 01:02:17;;;;;;;9.80;4.50;;;8.30;64.70;;;;;;6225539;28;20231;-80
2023/05/17 01:05:20;;;;;;;4.97;4.43;;;8.30;64.70;;;;;;6233205;28;20313;-80
2023/05/17 01:08:24;;;;;;;7.20;5.13;;;8.30;64.70;;;;;;6229238;28;20654;-80
2023/05/17 01:11:39;;;;;;;11.30;5.23;;;8.30;65.20;;;;;;6232639;28;20235;-80
2023/05/17 01:14:51;;;;;;;6.47;5.03;;;8.20;65.60;;;;;;6240466;28;20877;-82
2023/05/17 01:18:03;;;;;;;9.80;5.00;;;8.20;65.70;;;;;;6229269;28;20323;-82
2023/05/17 01:21:24;;;;;;;5.70;5.17;;;8.10;66.00;;;;;;6227038;28;20299;-80
2023/05/17 01:24:33;;;;;;;7.57;4.77;;;8.20;66.10;;;;;;6225330;28;20297;-82
2023/05/17 01:27:42;;;;;;;5.10;4.20;;;8.20;66.10;;;;;;6237484;28;20238;-81
2023/05/17 01:30:49;;;;;;;8.37;5.90;;;8.10;66.00;;;;;;6239809;28;20736;-80
2023/05/17 01:33:53;;;;;;;9.97;4.93;;;8.10;66.20;;;;;;6232065;28;20238;-81
2023/05/17 01:36:56;;;;;;;7.03;5.17;;;8.10;66.40;;;;;;6237244;28;20235;-81
2023/05/17 01:39:59;;;;;;;9.63;5.57;;;8.10;66.80;;;;;;6228890;28;20242;-81
2023/05/17 01:43:20;;;;;;;7.87;5.30;;;8.00;67.00;;;;;;6232749;28;20734;-82
2023/05/17 01:46:28;;;;;;;8.03;4.90;;;8.00;67.00;;;;;;6216255;28;20228;-80
2023/05/17 01:49:36;;;;;;;9.10;5.63;;;8.00;67.10;;;;;;6225885;28;20262;-81
2023/05/17 01:52:47;;;;;;;9.30;5.63;;;8.00;67.20;;;;;;6240781;28;20282;-81
2023/05/17 01:55:52;;;;;;;10.60;6.03;;;8.00;67.80;;;;;;6213625;28;20332;-81
2023/05/17 01:59:07;;;;;;;8.23;5.80;;;8.00;67.70;;;;;;6230986;28;20721;-81
2023/05/17 02:02:10;;;;;;;9.23;5.97;;;8.00;67.90;;;;;;6233505;28;20250;-81
2023/05/17 02:05:13;;;;;;;11.50;5.33;;;8.00;67.90;;;;;;6222618;28;20231;-81
2023/05/17 02:08:16;;;;;;;11.10;5.40;;;8.00;68.00;;;;;;6226731;28;20292;-79
2023/05/17 02:11:19;;;;;;;7.97;6.00;;;8.00;68.00;;;;;;6227170;28;20657;-82
2023/05/17 02:14:25;;;;;;;8.20;5.60;;;8.00;68.30;;;;;;6222688;28;20274;-79
2023/05/17 02:17:28;;;;;;;12.90;5.77;;;7.90;68.60;;;;;;6235459;28;20324;-81
2023/05/17 02:20:31;;;;;;;11.87;5.43;;;8.00;68.40;;;;;;6223774;28;20658;-80
2023/05/17 02:23:34;;;;;;;10.27;5.43;;;8.00;68.50;;;;;;6225487;28;20231;-82
2023/05/17 02:26:41;;;;;;;10.13;5.73;;;8.00;68.50;;;;;;6225760;28;20231;-83
2023/05/17 02:29:46;;;;;;;12.80;6.23;;;8.00;68.40;;;;;;6236977;28;20695;-80
2023/05/17 02:32:49;;;;;;;6.00;5.50;;;8.00;68.70;;;;;;6238208;28;20836;-81
2023/05/17 02:35:54;;;;;;;9.30;5.53;;;8.00;68.70;;;;;;6230282;28;20241;-80
2023/05/17 02:38:57;;;;;;;8.57;6.20;;;8.00;68.70;;;;;;6214847;28;20250;-82
2023/05/17 02:42:00;;;;;;;12.63;6.13;;;8.00;68.70;;;;;;6248737;28;20752;-79
2023/05/17 02:45:06;;;;;;;7.30;5.43;;;8.00;68.70;;;;;;6216957;28;20235;-81
2023/05/17 02:48:09;;;;;;;7.27;6.07;;;8.00;68.80;;;;;;6239165;28;20242;-81
2023/05/17 02:51:12;;;;;;;11.43;5.40;;;8.10;68.70;;;;;;6220369;28;20878;-82
2023/05/17 02:54:15;;;;;;;10.97;5.43;;;8.20;68.50;;;;;;6225494;28;20262;-83
2023/05/17 02:57:18;;;;;;;11.90;5.47;;;8.20;68.50;;;;;;6225688;28;20326;-80
2023/05/17 03:00:23;;;;;;;11.97;6.20;;;8.20;68.60;;;;;;6233190;28;20328;-80
2023/05/17 03:03:26;;;;;;;7.17;5.90;;;8.20;68.60;;;;;;6237327;28;20230;-81
2023/05/17 03:06:30;;;;;;;13.17;5.97;;;8.30;68.30;;;;;;6228321;28;20254;-82
2023/05/17 03:09:33;;;;;;;13.23;5.97;;;8.30;68.50;;;;;;6226676;28;20254;-81
2023/05/17 03:12:36;;;;;;;10.80;5.83;;;8.30;68.30;;;;;;6229734;28;20249;-82
2023/05/17 03:15:40;;;;;;;13.57;6.50;;;8.30;68.50;;;;;;6231539;28;20251;-80
2023/05/17 03:18:44;;;;;;;10.97;5.87;;;8.40;68.50;;;;;;6230264;28;20230;-81
2023/05/17 03:21:47;;;;;;;6.97;5.97;;;8.40;68.50;;;;;;6229284;28;20321;-81
2023/05/17 03:24:51;;;;;;;5.93;5.47;;;8.40;68.60;;;;;;6230566;28;20320;-82
2023/05/17 03:27:54;;;;;;;11.10;5.70;;;8.40;68.30;;;;;;6219604;28;20323;-82
2023/05/17 03:30:59;;;;;;;9.13;5.97;;;8.40;68.50;;;;;;6228548;28;20753;-80
2023/05/17 03:34:02;;;;;;;12.67;6.50;;;8.40;68.50;;;;;;6229688;28;20723;-82
2023/05/17 03:37:05;;;;;;;11.73;5.60;;;8.40;68.60;;;;;;6232021;28;20262;-82
2023/05/17 03:40:09;;;;;;;8.47;6.10;;;8.50;68.40;;;;;;6243421;28;20284;-79
2023/05/17 03:43:12;;;;;;;12.30;6.37;;;8.50;68.50;;;;;;6233130;28;20246;-80
2023/05/17 03:46:17;;;;;;;10.50;6.00;;;8.50;68.50;;;;;;6237312;28;20799;-79
2023/05/17 03:49:20;;;;;;;12.27;6.47;;;8.50;68.40;;;;;;6231500;28;20284;-80
2023/05/17 03:52:23;;;;;;;6.97;5.87;;;8.60;68.40;;;;;;6233936;28;20322;-81
2023/05/17 03:55:26;;;;;;;12.10;6.00;;;8.60;68.30;;;;;;6239710;28;20368;-81
2023/05/17 03:58:31;;;;;;;14.27;6.40;;;8.60;68.60;;;;;;6240090;28;20241;-81
2023/05/17 04:01:36;;;;;;;13.83;6.13;;;8.60;68.40;;;;;;6240736;28;20306;-81
2023/05/17 04:04:39;;;;;;;8.10;6.00;;;8.50;68.70;;;;;;6241561;28;20239;-82
2023/05/17 04:07:42;;;;;;;13.40;6.40;;;8.50;68.70;;;;;;6235689;28;20239;-79
2023/05/17 04:10:45;;;;;;;12.87;7.00;;;8.50;68.70;;;;;;6234424;28;20312;-79
2023/05/17 04:13:49;;;;;;;15.57;6.87;;;8.50;68.70;;;;;;6230857;28;20853;-80
2023/05/17 04:16:54;;;;;;;12.23;6.53;;;8.40;69.00;;;;;;6232496;28;20258;-80
2023/05/17 04:19:57;;;;;;;8.13;6.10;;;8.40;69.00;;;;;;6240367;28;20946;-83
2023/05/17 04:23:00;;;;;;;10.50;6.13;;;8.40;69.00;;;;;;6234253;28;20238;-80
2023/05/17 04:26:04;;;;;;;11.50;6.30;;;8.50;69.00;;;;;;6229243;28;20238;-81
2023/05/17 04:29:08;;;;;;;11.47;6.37;;;8.50;68.80;;;;;;6238739;28;20312;-81
2023/05/17 04:32:13;;;;;;;10.43;6.20;;;8.50;68.70;;;;;;6229959;28;20239;-81
2023/05/17 04:35:16;;;;;;;17.87;6.97;;;8.50;68.90;;;;;;6233188;28;20785;-80
2023/05/17 04:38:19;;;;;;;12.67;6.50;;;8.60;68.90;;;;;;6237090;28;20698;-80
2023/05/17 04:41:22;;;;;;;11.63;6.30;;;8.50;68.80;;;;;;6231663;28;20329;-82
2023/05/17 04:44:26;;;;;;;13.53;6.67;;;8.60;68.60;;;;;;6245926;28;20372;-80
2023/05/17 04:47:32;;;;;;;12.63;6.13;;;8.60;68.50;;;;;;6226297;28;20313;-79
2023/05/17 04:50:36;;;;;;;11.83;6.00;;;8.60;68.40;;;;;;6229344;28;20224;-79
2023/05/17 04:53:39;;;;;;;12.83;6.73;;;8.70;68.70;;;;;;6239277;28;20689;-79
2023/05/17 04:56:42;;;;;;;10.37;6.07;;;8.80;68.40;;;;;;6239756;28;20247;-82
2023/05/17 04:59:47;;;;;;;8.93;6.17;;;9.00;68.00;;;;;;6232665;28;20300;-81
2023/05/17 05:02:54;;;;;;;16.07;6.90;;;9.00;67.60;;;;;;6222361;28;20622;-81
2023/05/17 05:05:57;;;;;;;8.97;6.00;;;9.20;67.50;;;;;;6240922;28;20241;-81
2023/05/17 05:09:01;;;;;;;9.50;5.80;;;9.40;67.20;;;;;;6220194;28;20231;-80
2023/05/17 05:12:04;;;;;;;12.60;6.87;;;9.40;66.60;;;;;;6243428;28;20725;-80
2023/05/17 05:15:09;;;;;;;12.10;6.30;;;9.50;66.20;;;;;;6225499;28;20239;-79
2023/05/17 05:18:13;;;;;;;10.70;6.10;;;9.80;65.40;;;;;;6246299;28;20237;-79
2023/05/17 05:21:16;;;;;;;12.40;6.10;;;10.00;65.10;;;;;;6273669;28;20226;-80
2023/05/17 05:24:20;;;;;;;8.80;5.33;;;10.30;63.90;;;;;;6267620;28;20290;-81
2023/05/17 05:27:23;;;;;;;8.57;5.47;;;10.50;63.00;;;;;;6262733;28;20215;-81
2023/05/17 05:30:26;;;;;;;9.97;5.33;;;10.60;62.90;;;;;;6267379;28;20285;-81
2023/05/17 05:33:31;;;;;;;11.90;5.77;;;10.80;62.50;;;;;;6257839;28;20226;-83
2023/05/17 05:36:34;;;;;;;10.67;6.00;;;10.90;60.90;;;;;;6255179;28;20215;-82
2023/05/17 05:39:38;;;;;;;10.10;5.80;;;10.90;61.60;;;;;;6262002;28;20223;-82
2023/05/17 05:42:41;;;;;;;11.23;5.60;;;11.10;61.40;;;;;;6266342;28;20234;-83
2023/05/17 05:45:46;;;;;;;14.00;5.57;;;11.20;61.40;;;;;;6262389;28;20218;-81
2023/05/17 05:48:50;;;;;;;9.80;5.90;;;11.20;61.10;;;;;;6256586;28;25381;-80
2023/05/17 05:51:53;;;;;;;8.97;5.93;;;11.10;61.40;;;;;;6242706;28;20329;-78
2023/05/17 05:54:56;;;;;;;11.40;5.63;;;11.10;61.70;;;;;;6248952;28;20237;-80
2023/05/17 05:57:59;;;;;;;19.80;6.27;;;11.10;61.10;;;;;;6239121;28;20269;-80
2023/05/17 06:01:05;;;;;;;6.33;4.67;;;11.10;60.90;;;;;;6238253;28;20242;-81
2023/05/17 06:04:10;;;;;;;11.90;4.93;;;11.10;60.40;;;;;;6233058;28;20276;-81
2023/05/17 06:07:15;;;;;;;9.87;5.20;;;11.00;60.30;;;;;;6230274;28;20239;-81
2023/05/17 06:10:18;;;;;;;12.87;5.47;;;10.80;60.30;;;;;;6231045;28;20648;-80
2023/05/17 06:13:21;;;;;;;11.37;4.77;;;10.90;59.50;;;;;;6228317;28;20289;-81
2023/05/17 06:16:24;;;;;;;11.33;4.70;;;11.00;59.10;;;;;;6237971;28;20243;-81
2023/05/17 06:19:29;;;;;;;11.40;4.60;;;11.30;58.50;;;;;;6244150;28;20276;-82
2023/05/17 06:22:32;;;;;;;8.20;4.67;;;11.70;57.50;;;;;;6239413;28;20241;-81
2023/05/17 06:25:36;;;;;;;8.67;4.70;;;11.90;56.20;;;;;;6257020;28;20215;-81
2023/05/17 06:28:41;;;;;;;8.17;5.03;;;11.60;56.40;;;;;;6267699;28;20215;-80
2023/05/17 06:31:44;;;;;;;9.80;4.37;;;11.40;56.30;;;;;;6254862;28;20239;-81
2023/05/17 06:34:49;;;;;;;10.30;4.90;;;11.70;56.20;;;;;;6267413;28;20219;-81
2023/05/17 06:37:52;;;;;;;12.37;4.83;;;11.80;55.70;;;;;;6269535;28;20277;-79
2023/05/17 06:40:57;;;;;;;6.33;3.80;;;11.80;55.40;;;;;;6265201;28;20222;-79
2023/05/17 06:44:00;;;;;;;9.50;4.73;;;12.00;55.10;;;;;;6265029;28;20249;-80
2023/05/17 06:47:03;;;;;;;9.27;4.27;;;12.00;54.80;;;;;;6265717;28;20317;-79
2023/05/17 06:50:09;;;;;;;7.13;4.00;;;12.60;54.40;;;;;;6260932;28;20227;-79
2023/05/17 06:53:12;;;;;;;11.17;4.63;;;12.70;52.80;;;;;;6245566;28;20243;-81
2023/05/17 06:56:16;;;;;;;9.03;3.50;;;12.50;51.30;;;;;;6245150;28;20606;-80
2023/05/17 06:59:19;;;;;;;9.13;3.73;;;12.00;51.80;;;;;;6236966;28;20280;-80
2023/05/17 07:02:23;;;;;;;8.63;4.20;;;11.70;53.10;;;;;;6225152;28;20245;-80
2023/05/17 07:05:29;;;;;;;5.80;3.23;;;11.60;53.00;;;;;;6245509;28;20239;-80
2023/05/17 07:08:33;;;;;;;8.50;3.83;;;11.80;53.10;;;;;;6237232;28;20237;-80
2023/05/17 07:11:36;;;;;;;8.37;3.77;;;12.00;52.50;;;;;;6234720;28;20288;-80
2023/05/17 07:14:40;;;;;;;11.93;3.63;;;12.10;52.90;;;;;;6239501;28;20238;-81
2023/05/17 07:17:43;;;;;;;8.10;3.80;;;12.00;52.80;;;;;;6240974;28;20240;-81
2023/05/17 07:20:47;;;;;;;7.20;4.17;;;12.00;52.60;;;;;;6248640;28;20713;-80
2023/05/17 07:23:50;;;;;;;18.47;4.70;;;12.00;53.00;;;;;;6235710;28;20243;-79
2023/05/17 07:26:54;;;;;;;9.80;4.30;;;12.20;52.60;;;;;;6227917;28;20717;-79
2023/05/17 07:29:57;;;;;;;6.40;4.00;;;12.30;52.90;;;;;;6246520;28;20742;-80
2023/05/17 07:33:00;;;;;;;7.63;3.97;;;12.50;52.50;;;;;;6231153;28;20273;-79
2023/05/17 07:36:07;;;;;;;10.50;4.03;;;12.70;52.20;;;;;;6239026;28;20261;-82
2023/05/17 07:39:10;;;;;;;8.20;4.33;;;12.90;52.50;;;;;;6228544;28;20258;-81
2023/05/17 07:42:13;;;;;;;8.93;4.30;;;12.80;53.00;;;;;;6227059;28;20627;-80
2023/05/17 07:45:16;;;;;;;7.03;4.23;;;12.50;54.20;;;;;;6232288;28;20635;-79
2023/05/17 07:48:19;;;;;;;11.07;3.93;;;12.50;53.80;;;;;;6242123;28;20230;-79
2023/05/17 07:51:25;;;;;;;7.20;4.20;;;12.50;53.70;;;;;;6240922;28;20279;-81
2023/05/17 07:54:28;;;;;;;8.77;3.67;;;12.50;52.90;;;;;;6243313;28;20226;-81
2023/05/17 07:57:31;;;;;;;8.93;3.80;;;12.10;52.90;;;;;;6236064;28;20238;-81
2023/05/17 08:00:34;;;;;;;9.37;3.90;;;12.20;52.30;;;;;;6270498;28;20365;-80
2023/05/17 08:03:38;;;;;;;7.93;4.10;;;12.30;51.80;;;;;;6232031;28;20281;-80
2023/05/17 08:06:44;;;;;;;9.00;3.93;;;12.20;52.00;;;;;;6238043;28;20242;-80
2023/05/17 08:09:47;;;;;;;9.07;3.97;;;12.10;52.50;;;;;;6237835;28;20235;-81
2023/05/17 08:12:50;;;;;;;6.93;3.73;;;12.20;51.20;;;;;;6236231;28;20237;-79
2023/05/17 08:15:53;;;;;;;8.63;4.30;;;12.30;50.10;;;;;;6237062;28;21052;-81
2023/05/17 08:19:15;;;;;;;5.87;3.47;;;12.20;50.50;;;;;;6232649;28;20227;-80
2023/05/17 08:22:19;;;;;;;9.07;3.53;;;12.20;49.80;;;;;;6232857;28;20238;-79
2023/05/17 08:25:23;;;;;;;8.67;3.43;;;12.20;50.50;;;;;;6233151;28;20254;-82
2023/05/17 08:28:26;;;;;;;3.43;2.90;;;12.30;49.80;;;;;;6238443;28;20245;-82
2023/05/17 08:31:30;;;;;;;9.03;3.80;;;12.50;50.40;;;;;;6237858;28;20726;-80
2023/05/17 08:34:33;;;;;;;7.53;3.60;;;12.50;51.00;;;;;;6231097;28;20238;-80
2023/05/17 08:37:38;;;;;;;12.93;4.13;;;12.50;51.00;;;;;;6237211;28;20268;-83
2023/05/17 08:40:41;;;;;;;11.70;3.97;;;12.60;51.60;;;;;;6242278;28;20230;-82
2023/05/17 08:43:44;;;;;;;9.47;3.80;;;12.70;50.90;;;;;;6239435;28;20243;-79
2023/05/17 08:46:52;;;;;;;8.57;3.70;;;12.80;50.10;;;;;;6233752;28;20231;-81
2023/05/17 08:49:58;;;;;;;5.10;3.77;;;12.70;50.40;;;;;;6243061;28;20707;-81
2023/05/17 08:53:03;;;;;;;7.87;3.80;;;12.80;49.50;;;;;;6237808;28;20773;-80
2023/05/17 08:56:07;;;;;;;5.17;3.60;;;12.80;48.40;;;;;;6241543;28;20731;-81
2023/05/17 08:59:10;;;;;;;10.07;4.30;;;12.90;48.50;;;;;;6243913;28;20226;-81
2023/05/17 09:02:15;;;;;;;5.77;3.90;;;13.00;48.80;;;;;;6237374;28;20238;-81
2023/05/17 09:05:19;;;;;;;7.57;3.53;;;13.10;48.50;;;;;;6228658;28;20238;-80
2023/05/17 09:08:24;;;;;;;4.10;3.53;;;13.10;48.70;;;;;;6224950;28;20269;-80
2023/05/17 09:11:28;;;;;;;4.67;3.20;;;13.30;48.90;;;;;;6230496;28;20278;-81
2023/05/17 09:14:35;;;;;;;9.43;3.90;;;13.40;48.30;;;;;;6239395;28;20607;-80
2023/05/17 09:17:38;;;;;;;5.13;3.67;;;13.50;48.50;;;;;;6233872;28;20238;-82
2023/05/17 09:20:42;;;;;;;12.97;3.90;;;13.50;48.60;;;;;;6240075;28;20417;-80
2023/05/17 09:23:47;;;;;;;4.90;3.07;;;13.50;47.40;;;;;;6239186;28;20267;-80
2023/05/17 09:27:07;;;;;;;4.43;3.00;;;13.60;47.50;;;;;;6234331;28;20234;-82
2023/05/17 09:30:11;;;;;;;10.63;3.87;;;13.30;46.90;;;;;;6233433;28;20303;-80
2023/05/17 09:33:15;;;;;;;9.50;3.77;;;13.10;47.20;;;;;;6233420;28;20300;-80
2023/05/17 09:36:22;;;;;;;6.60;3.27;;;13.00;47.80;;;;;;6234034;28;20663;-80
2023/05/17 09:39:27;;;;;;;5.77;3.60;;;13.10;47.80;;;;;;6234642;28;20238;-82
2023/05/17 09:42:31;;;;;;;11.17;4.00;;;13.10;47.70;;;;;;6235353;28;20873;-80
2023/05/17 09:45:35;;;;;;;8.07;3.50;;;13.30;48.00;;;;;;6233472;28;20737;-81
2023/05/17 09:48:38;;;;;;;8.57;3.57;;;13.30;48.00;;;;;;6237122;28;20615;-82
2023/05/17 09:51:43;;;;;;;9.20;3.60;;;13.50;48.40;;;;;;6235259;28;20324;-84
2023/05/17 09:54:55;;;;;;;8.93;3.93;;;13.70;47.20;;;;;;6231193;28;20234;-84
2023/05/17 09:58:03;;;;;;;8.10;3.47;;;13.70;45.90;;;;;;6236192;28;20264;-84
2023/05/17 10:01:09;;;;;;;4.57;3.30;;;13.60;45.90;;;;;;6239128;28;20324;-79
2023/05/17 10:04:13;;;;;;;3.83;3.33;;;13.70;45.20;;;;;;6240993;28;20308;-83
2023/05/17 10:07:19;;;;;;;7.57;3.87;;;13.50;45.40;;;;;;6238411;28;20296;-84
2023/05/17 10:10:36;;;;;;;8.80;3.33;;;13.30;46.20;;;;;;6234419;28;20608;-84
2023/05/17 10:13:45;;;;;;;6.70;3.80;;;13.50;46.80;;;;;;6236666;28;20719;-82
2023/05/17 10:16:49;;;;;;;4.07;2.90;;;13.70;46.50;;;;;;6236076;28;20230;-82
2023/05/17 10:19:53;;;;;;;6.50;3.30;;;14.00;45.50;;;;;;6237857;28;20239;-82
2023/05/17 10:22:58;;;;;;;5.90;3.07;;;14.20;45.50;;;;;;6237176;28;20227;-83
2023/05/17 10:26:03;;;;;;;6.40;3.50;;;14.50;45.80;;;;;;6236168;28;20242;-82
2023/05/17 10:29:07;;;;;;;5.63;2.97;;;14.40;45.70;;;;;;6241436;28;20314;-81
2023/05/17 10:32:13;;;;;;;6.93;3.20;;;14.30;44.80;;;;;;6252797;28;20242;-82
2023/05/17 10:35:17;;;;;;;3.63;3.33;;;14.30;45.30;;;;;;6245641;28;20234;-82
2023/05/17 10:38:22;;;;;;;5.93;3.37;;;14.40;45.00;;;;;;6240856;28;20296;-82
2023/05/17 10:41:42;;;;;;;6.60;3.43;;;14.50;45.20;;;;;;6252976;28;20234;-81
2023/05/17 10:44:46;;;;;;;6.23;3.23;;;14.50;44.80;;;;;;6262068;28;20296;-80
2023/05/17 10:47:51;;;;;;;7.67;3.23;;;14.60;45.10;;;;;;6260851;28;20851;-83
2023/05/17 10:50:55;;;;;;;8.43;3.60;;;14.60;45.40;;;;;;6254486;28;20242;-81
2023/05/17 10:54:17;;;;;;;7.03;3.60;;;14.60;44.40;;;;;;6253529;28;20234;-81
2023/05/17 10:57:32;;;;;;;10.87;3.80;;;14.60;43.70;;;;;;6247669;28;20227;-84
2023/05/17 11:00:53;;;;;;;9.20;3.50;;;14.60;44.60;;;;;;6254921;28;20283;-84
2023/05/17 11:03:58;;;;;;;7.37;3.50;;;14.70;44.50;;;;;;6253375;28;20257;-82
2023/05/17 11:07:24;;;;;;;7.50;3.63;;;14.80;44.80;;;;;;6263045;28;20246;-82
2023/05/17 11:10:27;;;;;;;6.97;3.60;;;14.90;45.30;;;;;;6248328;28;20654;-81
2023/05/17 11:13:32;;;;;;;12.83;5.03;;;15.10;44.90;;;;;;6253417;28;20290;-83
2023/05/17 11:16:37;;;;;;;7.70;4.03;;;15.20;44.20;;;;;;6249418;28;20720;-83
2023/05/17 11:19:49;;;;;;;5.97;3.40;;;15.20;44.10;;;;;;6257616;28;20241;-83
2023/05/17 11:22:57;;;;;;;7.50;5.07;;;15.30;44.50;;;;;;6254385;28;20242;-84
2023/05/17 11:26:15;;;;;;;7.93;4.17;;;15.30;44.40;;;;;;6255022;28;20231;-83
2023/05/17 11:29:20;;;;;;;7.57;3.43;;;15.40;44.00;;;;;;6257023;28;20291;-81
2023/05/17 11:32:31;;;;;;;8.17;3.60;;;15.50;44.10;;;;;;6260244;28;20294;-82
2023/05/17 11:35:36;;;;;;;9.40;3.37;;;15.60;43.90;;;;;;6251928;28;20666;-82
2023/05/17 11:38:39;;;;;;;10.43;3.57;;;15.70;43.70;;;;;;6247844;28;20304;-82
2023/05/17 11:41:48;;;;;;;6.97;3.30;;;15.80;43.90;;;;;;6255810;28;20276;-83
2023/05/17 11:44:57;;;;;;;3.53;3.23;;;15.80;43.30;;;;;;6263296;28;20250;-84
2023/05/17 11:48:00;;;;;;;3.87;2.80;;;15.90;44.60;;;;;;6261158;28;20277;-80
2023/05/17 11:51:04;;;;;;;5.80;3.03;;;15.70;43.80;;;;;;6262950;28;20237;-81
2023/05/17 11:54:07;;;;;;;5.90;3.20;;;15.90;42.80;;;;;;6251349;28;20435;-81
2023/05/17 11:57:13;;;;;;;6.37;3.40;;;15.80;43.00;;;;;;6258265;28;20303;-83
2023/05/17 12:00:26;;;;;;;8.90;3.40;;;15.90;43.00;;;;;;6243554;28;20238;-81
2023/05/17 12:03:32;;;;;;;6.87;3.33;;;16.00;43.10;;;;;;6270969;28;20269;-84
2023/05/17 12:06:35;;;;;;;6.77;3.37;;;16.00;43.70;;;;;;6261307;28;20720;-85
2023/05/17 12:09:39;;;;;;;4.60;3.33;;;16.10;43.00;;;;;;6259802;28;20284;-83
2023/05/17 12:12:43;;;;;;;7.10;3.27;;;16.00;41.90;;;;;;6260693;28;20241;-83
2023/05/17 12:15:54;;;;;;;8.33;3.67;;;16.00;43.10;;;;;;6260645;28;20234;-81
2023/05/17 12:18:58;;;;;;;7.17;3.97;;;16.10;42.80;;;;;;6258942;28;20242;-83
2023/05/17 12:22:11;;;;;;;6.80;3.13;;;16.20;42.60;;;;;;6253175;28;20284;-84
2023/05/17 12:25:24;;;;;;;5.70;3.43;;;16.10;43.10;;;;;;6250581;28;21128;-83
2023/05/17 12:28:27;;;;;;;4.13;3.07;;;16.00;42.50;;;;;;6271264;28;20872;-82
2023/05/17 12:31:33;;;;;;;7.50;3.43;;;15.80;43.80;;;;;;6257644;28;20246;-82
2023/05/17 12:34:37;;;;;;;6.70;3.40;;;16.00;42.90;;;;;;6251811;28;20235;-82
2023/05/17 12:37:47;;;;;;;10.73;3.33;;;16.10;42.30;;;;;;6256779;28;20249;-81
2023/05/17 12:40:50;;;;;;;11.50;3.83;;;16.30;42.00;;;;;;6263405;28;20721;-82
2023/05/17 12:43:54;;;;;;;6.90;2.90;;;16.40;41.50;;;;;;6262276;28;20237;-83
2023/05/17 12:47:17;;;;;;;5.27;3.37;;;16.20;41.60;;;;;;6263903;28;20962;-82
2023/05/17 12:50:26;;;;;;;6.00;3.00;;;16.20;42.20;;;;;;6264843;28;20791;-81
2023/05/17 12:53:36;;;;;;;6.73;3.17;;;16.10;42.80;;;;;;6263243;28;20238;-81
2023/05/17 12:56:41;;;;;;;9.03;3.77;;;16.20;42.70;;;;;;6267586;28;20357;-82
2023/05/17 12:59:49;;;;;;;5.17;3.10;;;16.10;43.30;;;;;;6269649;28;20358;-81
2023/05/17 13:02:53;;;;;;;6.23;3.60;;;16.30;42.20;;;;;;6258395;28;20257;-80
2023/05/17 13:06:05;;;;;;;5.07;3.23;;;16.40;42.30;;;;;;6265563;28;20234;-82
2023/05/17 13:09:09;;;;;;;6.00;2.87;;;16.50;41.50;;;;;;6258980;28;20226;-83
2023/05/17 13:12:12;;;;;;;3.67;3.20;;;16.40;41.30;;;;;;6265518;28;20249;-82
2023/05/17 13:15:15;;;;;;;5.50;3.43;;;16.40;41.80;;;;;;6261319;28;20787;-82
2023/05/17 13:18:20;;;;;;;7.63;3.00;;;16.30;40.90;;;;;;6255775;28;20241;-82
2023/05/17 13:21:24;;;;;;;6.77;2.90;;;16.10;41.30;;;;;;6258713;28;20230;-83
2023/05/17 13:24:27;;;;;;;7.33;3.30;;;16.20;41.10;;;;;;6262473;28;20242;-82
2023/05/17 13:27:31;;;;;;;5.20;3.53;;;16.20;41.80;;;;;;6249691;28;20230;-83
2023/05/17 13:30:34;;;;;;;4.63;3.13;;;16.30;41.70;;;;;;6268774;28;20229;-81
2023/05/17 13:33:40;;;;;;;5.80;3.30;;;16.40;42.20;;;;;;6257804;28;20230;-82
2023/05/17 13:36:43;;;;;;;6.30;3.53;;;16.40;41.80;;;;;;6262126;28;20248;-81
2023/05/17 13:39:47;;;;;;;4.97;3.20;;;16.40;42.00;;;;;;6259369;28;20261;-82
2023/05/17 13:42:50;;;;;;;11.13;3.33;;;16.70;42.10;;;;;;6260637;28;20238;-82
2023/05/17 13:46:03;;;;;;;8.73;3.50;;;17.00;42.20;;;;;;6268114;28;20249;-81
2023/05/17 13:49:08;;;;;;;9.13;3.40;;;16.90;42.60;;;;;;6257089;28;20242;-80
2023/05/17 13:52:12;;;;;;;9.30;3.60;;;16.80;41.90;;;;;;6252247;28;20237;-83
2023/05/17 13:55:15;;;;;;;9.60;3.83;;;16.60;41.90;;;;;;6259527;28;20234;-83
2023/05/17 13:58:18;;;;;;;4.00;3.00;;;16.40;42.40;;;;;;6265525;28;20249;-81
2023/05/17 14:01:22;;;;;;;8.53;3.40;;;16.60;42.40;;;;;;6259921;28;20319;-81
2023/05/17 14:04:26;;;;;;;6.60;3.30;;;16.60;42.40;;;;;;6282811;28;20244;-79
2023/05/17 14:07:29;;;;;;;6.20;3.43;;;16.60;42.70;;;;;;6271704;28;20233;-82
2023/05/17 14:10:34;;;;;;;9.07;3.80;;;16.60;43.30;;;;;;6273902;28;20287;-82
2023/05/17 14:13:37;;;;;;;6.43;3.23;;;16.70;42.90;;;;;;6262370;28;20261;-82
2023/05/17 14:16:40;;;;;;;6.43;3.70;;;16.70;42.90;;;;;;6261032;28;20246;-82
2023/05/17 14:19:45;;;;;;;6.80;3.67;;;16.90;42.70;;;;;;6252143;28;20277;-83
2023/05/17 14:22:49;;;;;;;8.60;3.43;;;16.70;43.00;;;;;;6258675;28;20356;-83
2023/05/17 14:25:52;;;;;;;6.77;3.00;;;16.80;42.60;;;;;;6261258;28;20253;-79
2023/05/17 14:28:55;;;;;;;5.13;3.63;;;16.80;42.30;;;;;;6259986;28;20296;-80
2023/05/17 14:31:58;;;;;;;8.93;3.77;;;16.90;42.50;;;;;;6260399;28;20253;-81
2023/05/17 14:35:03;;;;;;;3.60;3.30;;;16.80;42.10;;;;;;6260817;28;20238;-80
2023/05/17 14:38:06;;;;;;;6.40;3.53;;;16.80;42.30;;;;;;6238680;28;20234;-80
2023/05/17 14:41:09;;;;;;;6.73;3.17;;;16.80;43.00;;;;;;6259570;28;20319;-79
2023/05/17 14:44:12;;;;;;;8.53;3.83;;;17.20;42.20;;;;;;6255161;28;20235;-80
2023/05/17 14:47:15;;;;;;;7.93;3.50;;;17.30;41.90;;;;;;6257120;28;20245;-81
2023/05/17 14:50:20;;;;;;;8.77;3.53;;;17.30;42.10;;;;;;6255034;28;20242;-80
2023/05/17 14:53:27;;;;;;;5.10;3.50;;;17.20;42.10;;;;;;6259518;28;20226;-78
2023/05/17 14:56:31;;;;;;;4.03;3.30;;;17.20;41.50;;;;;;6256473;28;20237;-80
2023/05/17 14:59:37;;;;;;;4.67;3.30;;;17.00;42.20;;;;;;6253923;28;20234;-78
2023/05/17 15:02:40;;;;;;;4.70;3.20;;;17.20;42.10;;;;;;6254312;28;20309;-82
2023/05/17 15:05:45;;;;;;;5.07;3.30;;;17.20;42.20;;;;;;6252759;28;20246;-80
2023/05/17 15:08:48;;;;;;;6.40;3.23;;;17.00;42.10;;;;;;6257188;28;20309;-78
2023/05/17 15:11:51;;;;;;;9.50;3.40;;;16.90;42.70;;;;;;6254045;28;20250;-78
2023/05/17 15:14:54;;;;;;;6.03;3.50;;;16.80;42.50;;;;;;6260684;28;20236;-78
2023/05/17 15:17:58;;;;;;;4.10;3.30;;;16.90;42.80;;;;;;6253675;28;20325;-77
2023/05/17 15:21:03;;;;;;;8.87;3.57;;;17.20;42.20;;;;;;6258457;28;20297;-80
2023/05/17 15:24:07;;;;;;;5.47;3.60;;;17.00;42.00;;;;;;6250057;28;20226;-80
2023/05/17 15:27:14;;;;;;;9.10;3.43;;;16.90;42.60;;;;;;6255692;28;20261;-80
2023/05/17 15:30:17;;;;;;;6.23;3.73;;;16.90;42.40;;;;;;6258480;28;20233;-80
2023/05/17 15:33:20;;;;;;;7.83;3.40;;;16.70;42.30;;;;;;6264498;28;20237;-81
2023/05/17 15:36:25;;;;;;;5.50;3.50;;;16.60;42.40;;;;;;6258660;28;20234;-79
2023/05/17 15:39:28;;;;;;;7.70;3.63;;;16.60;42.40;;;;;;6265179;28;20566;-81
2023/05/17 15:42:33;;;;;;;6.43;3.37;;;16.60;42.30;;;;;;6260399;28;20262;-79
2023/05/17 15:45:36;;;;;;;4.00;2.80;;;16.80;42.20;;;;;;6258222;28;20241;-83
2023/05/17 15:48:39;;;;;;;4.93;3.13;;;17.20;42.20;;;;;;6254190;28;20943;-80
2023/05/17 15:51:44;;;;;;;3.37;3.10;;;17.60;41.70;;;;;;6252613;28;20237;-79
2023/05/17 15:54:49;;;;;;;4.43;3.10;;;17.50;41.60;;;;;;6256316;28;20233;-80
2023/05/17 15:57:52;;;;;;;10.37;3.40;;;17.20;41.90;;;;;;6251626;28;20322;-81
2023/05/17 16:00:55;;;;;;;5.43;3.30;;;16.70;42.10;;;;;;6257578;28;20710;-83
2023/05/17 16:03:58;;;;;;;7.40;3.57;;;16.40;42.40;;;;;;6256831;28;20241;-80